createdAt,value
2019-04-07T00:00:01.193Z,11.06
2019-04-07T00:01:01.193Z,11.07
2019-04-07T00:02:01.225Z,11.08
2019-04-07T00:03:01.348Z,11.08
2019-04-07T00:04:05.362Z,11.06
2019-04-07T00:05:14.934Z,11.04
2019-04-07T00:06:01.203Z,11
2019-04-07T00:07:01.410Z,11
2019-04-07T00:08:01.163Z,11.01
2019-04-07T00:09:01.785Z,11.03
2019-04-07T00:10:01.881Z,11.01
2019-04-07T00:11:01.458Z,11.03
2019-04-07T00:12:01.223Z,11.03
2019-04-07T00:13:01.282Z,11.01
2019-04-07T00:14:01.203Z,11.03
2019-04-07T00:15:01.203Z,11
2019-04-07T00:16:02.110Z,10.99
2019-04-07T00:17:01.885Z,10.97
2019-04-07T00:18:01.147Z,10.99
2019-04-07T00:19:01.719Z,10.99
2019-04-07T00:20:01.210Z,10.96
2019-04-07T00:21:01.626Z,10.97
2019-04-07T00:22:01.160Z,10.94
2019-04-07T00:23:01.190Z,10.94
2019-04-07T00:24:02.570Z,10.94
2019-04-07T00:25:02.626Z,10.97
2019-04-07T00:26:02.329Z,10.97
2019-04-07T00:27:01.468Z,10.94
2019-04-07T00:28:01.169Z,10.93
2019-04-07T00:29:01.786Z,10.9
2019-04-07T00:30:02.221Z,10.9
2019-04-07T00:31:02.413Z,10.86
2019-04-07T00:32:01.192Z,10.87
2019-04-07T00:33:01.137Z,10.87
2019-04-07T00:34:01.715Z,10.84
2019-04-07T00:35:01.162Z,10.87
2019-04-07T00:36:01.153Z,10.86
2019-04-07T00:37:01.219Z,10.84
2019-04-07T00:38:02.291Z,10.83
2019-04-07T00:39:01.647Z,10.8
2019-04-07T00:40:01.183Z,10.78
2019-04-07T00:41:01.492Z,10.79
2019-04-07T00:42:01.910Z,10.76
2019-04-07T00:43:01.148Z,10.75
2019-04-07T00:44:01.683Z,10.76
2019-04-07T00:45:01.167Z,10.75
2019-04-07T00:46:01.439Z,10.75
2019-04-07T00:47:01.116Z,10.75
2019-04-07T00:48:01.466Z,10.72
2019-04-07T00:49:02.809Z,10.68
2019-04-07T00:50:01.565Z,10.68
2019-04-07T00:51:01.542Z,10.68
2019-04-07T00:52:01.328Z,10.66
2019-04-07T00:53:01.376Z,10.66
2019-04-07T00:54:01.103Z,10.66
2019-04-07T00:55:02.353Z,10.68
2019-04-07T00:56:01.376Z,10.68
2019-04-07T00:57:01.130Z,10.66
2019-04-07T00:58:01.175Z,10.69
2019-04-07T00:59:02.914Z,10.65
2019-04-07T01:00:01.797Z,10.61
2019-04-07T01:01:01.110Z,10.59
2019-04-07T01:02:01.539Z,10.59
2019-04-07T01:03:01.999Z,10.55
2019-04-07T01:04:01.238Z,10.55
2019-04-07T01:05:02.441Z,10.53
2019-04-07T01:06:01.273Z,10.52
2019-04-07T01:07:01.109Z,10.48
2019-04-07T01:08:01.843Z,10.47
2019-04-07T01:09:01.862Z,10.44
2019-04-07T01:10:02.210Z,10.44
2019-04-07T01:11:01.435Z,10.42
2019-04-07T01:12:01.209Z,10.39
2019-04-07T01:13:01.143Z,10.39
2019-04-07T01:14:01.674Z,10.38
2019-04-07T01:15:01.118Z,10.35
2019-04-07T01:16:01.466Z,10.34
2019-04-07T01:17:01.088Z,10.3
2019-04-07T01:18:01.219Z,10.31
2019-04-07T01:19:01.072Z,10.3
2019-04-07T01:20:01.142Z,10.28
2019-04-07T01:21:02.305Z,10.24
2019-04-07T01:22:01.228Z,10.23
2019-04-07T01:23:02.972Z,10.21
2019-04-07T01:24:01.121Z,10.23
2019-04-07T01:25:01.166Z,10.2
2019-04-07T01:26:01.111Z,10.17
2019-04-07T01:27:01.067Z,10.17
2019-04-07T01:28:01.069Z,10.17
2019-04-07T01:29:01.573Z,10.19
2019-04-07T01:30:01.051Z,10.14
2019-04-07T01:31:01.084Z,10.16
2019-04-07T01:32:01.083Z,10.16
2019-04-07T01:33:01.081Z,10.17
2019-04-07T01:34:01.126Z,10.14
2019-04-07T01:35:01.408Z,10.11
2019-04-07T01:36:01.079Z,10.09
2019-04-07T01:37:01.125Z,10.14
2019-04-07T01:38:01.668Z,10.06
2019-04-07T01:39:01.641Z,10.06
2019-04-07T01:40:03.185Z,10.03
2019-04-07T01:41:01.079Z,10.03
2019-04-07T01:42:01.762Z,9.96
2019-04-07T01:43:01.173Z,9.96
2019-04-07T01:44:01.099Z,9.9
2019-04-07T01:45:01.705Z,9.92
2019-04-07T01:46:01.277Z,9.88
2019-04-07T01:47:01.473Z,9.89
2019-04-07T01:48:01.165Z,9.88
2019-04-07T01:49:01.156Z,9.86
2019-04-07T01:50:01.049Z,9.86
2019-04-07T01:51:01.561Z,9.85
2019-04-07T01:52:01.098Z,9.86
2019-04-07T01:53:01.072Z,9.79
2019-04-07T01:54:01.028Z,9.76
2019-04-07T01:55:01.083Z,9.73
2019-04-07T01:56:01.861Z,9.68
2019-04-07T01:57:01.479Z,9.66
2019-04-07T01:58:01.041Z,9.66
2019-04-07T01:59:01.675Z,9.65
2019-04-07T02:00:01.814Z,9.65
2019-04-07T02:01:01.048Z,9.63
2019-04-07T02:02:02.182Z,9.61
2019-04-07T02:03:01.102Z,9.61
2019-04-07T02:04:01.833Z,9.61
2019-04-07T02:05:01.034Z,9.61
2019-04-07T02:06:06.559Z,9.61
2019-04-07T02:07:01.045Z,9.59
2019-04-07T02:08:01.422Z,9.55
2019-04-07T02:09:01.982Z,9.44
2019-04-07T02:10:01.034Z,9.42
2019-04-07T02:11:01.427Z,9.47
2019-04-07T02:12:01.891Z,9.45
2019-04-07T02:13:01.228Z,9.47
2019-04-07T02:14:01.088Z,9.48
2019-04-07T02:15:01.083Z,9.47
2019-04-07T02:16:00.996Z,9.48
2019-04-07T02:17:01.017Z,9.45
2019-04-07T02:18:01.009Z,9.42
2019-04-07T02:19:01.037Z,9.44
2019-04-07T02:20:01.423Z,9.41
2019-04-07T02:21:00.974Z,9.35
2019-04-07T02:22:00.996Z,9.31
2019-04-07T02:23:00.985Z,9.29
2019-04-07T02:24:03.764Z,9.26
2019-04-07T02:25:01.038Z,9.27
2019-04-07T02:26:01.009Z,9.23
2019-04-07T02:27:01.016Z,9.26
2019-04-07T02:28:01.184Z,9.26
2019-04-07T02:29:01.667Z,9.26
2019-04-07T02:30:00.972Z,9.24
2019-04-07T02:31:01.099Z,9.24
2019-04-07T02:32:01.684Z,9.23
2019-04-07T02:33:02.394Z,9.26
2019-04-07T02:34:01.003Z,9.24
2019-04-07T02:35:01.888Z,9.26
2019-04-07T02:36:28.122Z,9.27
2019-04-07T02:37:01.021Z,9.26
2019-04-07T02:38:02.380Z,9.26
2019-04-07T02:39:01.183Z,9.29
2019-04-07T02:40:03.382Z,9.27
2019-04-07T02:41:02.014Z,9.29
2019-04-07T02:42:00.993Z,9.29
2019-04-07T02:43:03.266Z,9.26
2019-04-07T02:44:02.916Z,9.27
2019-04-07T02:45:01.624Z,9.23
2019-04-07T02:46:00.994Z,9.24
2019-04-07T02:47:01.009Z,9.21
2019-04-07T02:48:01.472Z,9.21
2019-04-07T02:49:01.993Z,9.19
2019-04-07T02:50:03.453Z,9.2
2019-04-07T02:51:01.411Z,9.2
2019-04-07T02:52:00.983Z,9.2
2019-04-07T02:53:02.162Z,9.17
2019-04-07T02:54:00.963Z,9.14
2019-04-07T02:55:02.727Z,9.14
2019-04-07T02:56:02.270Z,9.16
2019-04-07T02:57:00.954Z,9.16
2019-04-07T02:58:03.004Z,9.16
2019-04-07T02:59:01.942Z,9.13
2019-04-07T03:00:01.304Z,9.11
2019-04-07T03:01:02.192Z,9.11
2019-04-07T03:02:01.217Z,9.1
2019-04-07T03:03:01.817Z,9.11
2019-04-07T03:04:05.155Z,9.09
2019-04-07T03:05:02.420Z,9.11
2019-04-07T03:06:02.169Z,9.13
2019-04-07T03:07:00.974Z,9.13
2019-04-07T03:08:01.786Z,9.14
2019-04-07T03:09:00.930Z,9.11
2019-04-07T03:10:01.031Z,9.13
2019-04-07T03:11:02.229Z,9.14
2019-04-07T03:12:05.166Z,9.14
2019-04-07T03:13:01.252Z,9.14
2019-04-07T03:14:00.952Z,9.1
2019-04-07T03:15:00.950Z,9.11
2019-04-07T03:16:02.263Z,9.1
2019-04-07T03:17:01.949Z,9.09
2019-04-07T03:18:01.014Z,9.11
2019-04-07T03:19:00.936Z,9.1
2019-04-07T03:20:00.934Z,9.11
2019-04-07T03:21:02.197Z,9.1
2019-04-07T03:22:01.275Z,9.09
2019-04-07T03:23:00.927Z,9.06
2019-04-07T03:24:00.932Z,9.07
2019-04-07T03:25:00.918Z,9.06
2019-04-07T03:26:02.352Z,9.03
2019-04-07T03:27:01.050Z,9
2019-04-07T03:28:01.317Z,9.02
2019-04-07T03:29:01.474Z,8.99
2019-04-07T03:30:01.767Z,8.99
2019-04-07T03:31:05.798Z,8.99
2019-04-07T03:32:06.034Z,8.99
2019-04-07T03:33:10.993Z,8.95
2019-04-07T03:34:06.583Z,8.98
2019-04-07T03:35:06.225Z,8.91
2019-04-07T03:36:08.667Z,8.96
2019-04-07T03:37:40.933Z,8.91
2019-04-07T03:38:02.130Z,8.95
2019-04-07T03:39:02.334Z,8.91
2019-04-07T03:40:02.955Z,8.93
2019-04-07T03:41:00.917Z,8.93
2019-04-07T03:42:01.256Z,8.92
2019-04-07T03:43:01.757Z,8.93
2019-04-07T03:44:01.521Z,8.91
2019-04-07T03:45:01.298Z,8.89
2019-04-07T03:46:01.130Z,8.92
2019-04-07T03:47:01.662Z,8.92
2019-04-07T03:48:02.364Z,8.92
2019-04-07T03:49:02.108Z,8.92
2019-04-07T03:50:03.559Z,8.92
2019-04-07T03:51:01.713Z,8.92
2019-04-07T03:52:04.309Z,8.95
2019-04-07T03:53:03.057Z,8.95
2019-04-07T03:54:00.932Z,8.95
2019-04-07T03:55:01.532Z,8.95
2019-04-07T03:56:01.944Z,8.96
2019-04-07T03:57:00.955Z,8.95
2019-04-07T03:58:01.780Z,8.93
2019-04-07T03:59:00.875Z,8.95
2019-04-07T04:00:02.528Z,8.95
2019-04-07T04:01:00.912Z,8.95
2019-04-07T04:02:01.022Z,8.98
2019-04-07T04:03:00.862Z,8.99
2019-04-07T04:04:02.386Z,9
2019-04-07T04:05:01.050Z,9
2019-04-07T04:06:00.872Z,8.99
2019-04-07T04:07:31.080Z,9.02
2019-04-07T04:08:01.876Z,9.03
2019-04-07T04:09:02.268Z,9.03
2019-04-07T04:10:01.343Z,9.03
2019-04-07T04:11:00.920Z,9.03
2019-04-07T04:12:01.510Z,9.03
2019-04-07T04:13:01.151Z,9.04
2019-04-07T04:14:03.029Z,9.07
2019-04-07T04:15:03.474Z,9.09
2019-04-07T04:16:01.156Z,9.07
2019-04-07T04:17:02.266Z,9.09
2019-04-07T04:18:01.320Z,9.07
2019-04-07T04:19:00.858Z,9.07
2019-04-07T04:20:00.853Z,9.1
2019-04-07T04:21:01.607Z,9.09
2019-04-07T04:22:02.300Z,9.1
2019-04-07T04:23:00.900Z,9.1
2019-04-07T04:24:00.888Z,9.11
2019-04-07T04:25:01.413Z,9.11
2019-04-07T04:26:02.437Z,9.13
2019-04-07T04:27:01.115Z,9.13
2019-04-07T04:28:01.534Z,9.13
2019-04-07T04:29:04.108Z,9.13
2019-04-07T04:30:01.098Z,9.13
2019-04-07T04:31:00.938Z,9.14
2019-04-07T04:32:01.779Z,9.14
2019-04-07T04:33:02.397Z,9.17
2019-04-07T04:34:01.944Z,9.16
2019-04-07T04:35:01.145Z,9.17
2019-04-07T04:36:00.825Z,9.19
2019-04-07T04:37:01.937Z,9.19
2019-04-07T04:38:02.196Z,9.19
2019-04-07T04:39:00.922Z,9.19
2019-04-07T04:40:03.908Z,9.19
2019-04-07T04:41:03.037Z,9.17
2019-04-07T04:42:01.089Z,9.17
2019-04-07T04:43:02.773Z,9.19
2019-04-07T04:44:00.823Z,9.19
2019-04-07T04:45:02.726Z,9.17
2019-04-07T04:46:01.483Z,9.19
2019-04-07T04:47:02.974Z,9.19
2019-04-07T04:48:00.804Z,9.16
2019-04-07T04:49:00.822Z,9.19
2019-04-07T04:50:02.647Z,9.17
2019-04-07T04:51:00.850Z,9.2
2019-04-07T04:52:00.923Z,9.2
2019-04-07T04:53:00.772Z,9.19
2019-04-07T04:54:02.013Z,9.17
2019-04-07T04:55:02.234Z,9.2
2019-04-07T04:56:01.221Z,9.17
2019-04-07T04:57:08.971Z,9.19
2019-04-07T04:58:00.814Z,9.16
2019-04-07T04:59:01.039Z,9.2
2019-04-07T05:00:02.354Z,9.19
2019-04-07T05:01:03.118Z,9.19
2019-04-07T05:02:01.273Z,9.2
2019-04-07T05:03:01.146Z,9.21
2019-04-07T05:04:00.766Z,9.21
2019-04-07T05:05:02.774Z,9.2
2019-04-07T05:06:02.526Z,9.19
2019-04-07T05:07:01.614Z,9.2
2019-04-07T05:08:06.783Z,9.19
2019-04-07T05:09:02.211Z,9.23
2019-04-07T05:10:01.698Z,9.19
2019-04-07T05:11:01.857Z,9.2
2019-04-07T05:12:00.832Z,9.19
2019-04-07T05:13:00.762Z,9.19
2019-04-07T05:14:00.945Z,9.2
2019-04-07T05:15:01.870Z,9.2
2019-04-07T05:16:01.238Z,9.19
2019-04-07T05:17:01.259Z,9.17
2019-04-07T05:18:01.792Z,9.19
2019-04-07T05:19:00.861Z,9.14
2019-04-07T05:20:01.285Z,9.11
2019-04-07T05:21:00.829Z,9.14
2019-04-07T05:22:01.532Z,9.16
2019-04-07T05:23:01.087Z,9.14
2019-04-07T05:24:01.506Z,9.13
2019-04-07T05:25:01.024Z,9.14
2019-04-07T05:26:00.810Z,9.14
2019-04-07T05:27:01.112Z,9.16
2019-04-07T05:28:01.325Z,9.14
2019-04-07T05:29:01.497Z,9.17
2019-04-07T05:30:01.348Z,9.19
2019-04-07T05:31:00.750Z,9.2
2019-04-07T05:32:01.823Z,9.21
2019-04-07T05:33:01.049Z,9.21
2019-04-07T05:34:00.861Z,9.21
2019-04-07T05:35:01.170Z,9.23
2019-04-07T05:36:00.763Z,9.23
2019-04-07T05:37:02.327Z,9.24
2019-04-07T05:38:07.647Z,9.27
2019-04-07T05:39:01.095Z,9.26
2019-04-07T05:40:04.824Z,9.27
2019-04-07T05:41:00.750Z,9.31
2019-04-07T05:42:01.433Z,9.33
2019-04-07T05:43:02.091Z,9.35
2019-04-07T05:44:01.433Z,9.33
2019-04-07T05:45:00.856Z,9.35
2019-04-07T05:46:00.920Z,9.37
2019-04-07T05:47:00.820Z,9.37
2019-04-07T05:48:00.768Z,9.4
2019-04-07T05:49:00.893Z,9.37
2019-04-07T05:50:06.128Z,9.41
2019-04-07T05:51:01.271Z,9.4
2019-04-07T05:52:06.739Z,9.4
2019-04-07T05:53:00.693Z,9.41
2019-04-07T05:54:01.402Z,9.41
2019-04-07T05:55:01.424Z,9.44
2019-04-07T05:56:01.205Z,9.45
2019-04-07T05:57:02.725Z,9.47
2019-04-07T05:58:08.371Z,9.48
2019-04-07T05:59:01.941Z,9.48
2019-04-07T06:00:01.490Z,9.49
2019-04-07T06:01:00.706Z,9.51
2019-04-07T06:02:04.207Z,9.51
2019-04-07T06:03:09.206Z,9.52
2019-04-07T06:04:02.472Z,9.55
2019-04-07T06:05:01.365Z,9.57
2019-04-07T06:06:00.814Z,9.58
2019-04-07T06:07:00.794Z,9.61
2019-04-07T06:08:34.385Z,9.61
2019-04-07T06:09:00.779Z,9.62
2019-04-07T06:10:01.201Z,9.63
2019-04-07T06:11:02.550Z,9.63
2019-04-07T06:12:09.677Z,9.63
2019-04-07T06:13:00.697Z,9.66
2019-04-07T06:14:00.969Z,9.66
2019-04-07T06:15:00.712Z,9.69
2019-04-07T06:16:00.713Z,9.72
2019-04-07T06:17:01.035Z,9.73
2019-04-07T06:18:02.665Z,9.76
2019-04-07T06:19:08.799Z,9.76
2019-04-07T06:20:01.592Z,9.79
2019-04-07T06:21:01.091Z,9.81
2019-04-07T06:22:01.482Z,9.79
2019-04-07T06:23:00.668Z,9.79
2019-04-07T06:24:00.888Z,9.83
2019-04-07T06:25:05.580Z,9.85
2019-04-07T06:26:00.731Z,9.85
2019-04-07T06:27:00.956Z,9.88
2019-04-07T06:28:00.644Z,9.88
2019-04-07T06:29:01.366Z,9.89
2019-04-07T06:30:01.052Z,9.9
2019-04-07T06:31:03.147Z,9.92
2019-04-07T06:32:09.803Z,9.93
2019-04-07T06:33:01.736Z,9.93
2019-04-07T06:34:00.692Z,9.92
2019-04-07T06:35:01.501Z,9.96
2019-04-07T06:36:00.659Z,9.97
2019-04-07T06:37:00.731Z,9.97
2019-04-07T06:38:08.901Z,10.02
2019-04-07T06:39:01.593Z,9.99
2019-04-07T06:40:01.358Z,10.03
2019-04-07T06:41:03.433Z,10.03
2019-04-07T06:42:03.538Z,10.03
2019-04-07T06:43:06.667Z,10.06
2019-04-07T06:44:18.725Z,10.07
2019-04-07T06:45:01.880Z,10.1
2019-04-07T06:46:00.612Z,10.1
2019-04-07T06:47:04.734Z,10.13
2019-04-07T06:48:09.266Z,10.14
2019-04-07T06:49:00.675Z,10.14
2019-04-07T06:50:00.788Z,10.19
2019-04-07T06:51:01.895Z,10.2
2019-04-07T06:52:04.900Z,10.2
2019-04-07T06:53:00.707Z,10.23
2019-04-07T06:54:02.414Z,10.23
2019-04-07T06:55:00.631Z,10.23
2019-04-07T06:56:05.930Z,10.25
2019-04-07T06:57:06.518Z,10.27
2019-04-07T06:58:02.178Z,10.3
2019-04-07T06:59:00.784Z,10.31
2019-04-07T07:00:01.150Z,10.35
2019-04-07T07:01:03.501Z,10.34
2019-04-07T07:02:00.783Z,10.37
2019-04-07T07:03:04.498Z,10.34
2019-04-07T07:04:01.758Z,10.35
2019-04-07T07:05:00.614Z,10.38
2019-04-07T07:06:01.421Z,10.37
2019-04-07T07:07:01.066Z,10.39
2019-04-07T07:08:00.982Z,10.39
2019-04-07T07:09:00.975Z,10.42
2019-04-07T07:10:04.122Z,10.44
2019-04-07T07:11:01.090Z,10.44
2019-04-07T07:12:01.742Z,10.47
2019-04-07T07:13:15.809Z,10.52
2019-04-07T07:14:00.634Z,10.53
2019-04-07T07:15:04.612Z,10.53
2019-04-07T07:16:01.690Z,10.59
2019-04-07T07:17:00.597Z,10.61
2019-04-07T07:18:00.629Z,10.62
2019-04-07T07:19:02.551Z,10.68
2019-04-07T07:20:06.485Z,10.69
2019-04-07T07:21:04.373Z,10.69
2019-04-07T07:22:01.378Z,10.72
2019-04-07T07:23:00.848Z,10.73
2019-04-07T07:24:01.391Z,10.75
2019-04-07T07:25:01.498Z,10.76
2019-04-07T07:26:04.226Z,10.78
2019-04-07T07:27:11.290Z,10.79
2019-04-07T07:28:01.746Z,10.79
2019-04-07T07:29:01.013Z,10.79
2019-04-07T07:30:01.347Z,10.8
2019-04-07T07:31:01.022Z,10.79
2019-04-07T07:32:05.002Z,10.79
2019-04-07T07:33:00.816Z,10.78
2019-04-07T07:34:00.638Z,10.79
2019-04-07T07:35:00.604Z,10.78
2019-04-07T07:36:01.382Z,10.8
2019-04-07T07:37:00.623Z,10.82
2019-04-07T07:38:00.559Z,10.83
2019-04-07T07:39:11.725Z,10.83
2019-04-07T07:40:02.178Z,10.84
2019-04-07T07:41:04.721Z,10.9
2019-04-07T07:42:00.544Z,10.9
2019-04-07T07:43:00.621Z,10.89
2019-04-07T07:44:07.790Z,10.93
2019-04-07T07:45:00.629Z,10.96
2019-04-07T07:46:00.549Z,10.97
2019-04-07T07:47:00.638Z,10.99
2019-04-07T07:48:01.082Z,11.03
2019-04-07T07:49:02.271Z,11.06
2019-04-07T07:50:07.852Z,11.07
2019-04-07T07:51:01.361Z,11.1
2019-04-07T07:52:00.798Z,11.11
2019-04-07T07:53:01.486Z,11.17
2019-04-07T07:54:02.226Z,11.18
2019-04-07T07:55:03.965Z,11.24
2019-04-07T07:56:01.094Z,11.28
2019-04-07T07:57:02.357Z,11.31
2019-04-07T07:58:01.202Z,11.34
2019-04-07T07:59:03.480Z,11.37
2019-04-07T08:00:07.284Z,11.44
2019-04-07T08:01:01.554Z,11.47
2019-04-07T08:02:02.244Z,11.44
2019-04-07T08:03:00.757Z,11.54
2019-04-07T08:04:00.899Z,11.58
2019-04-07T08:05:00.746Z,11.64
2019-04-07T08:06:08.479Z,11.69
2019-04-07T08:07:02.788Z,11.72
2019-04-07T08:08:01.866Z,11.75
2019-04-07T08:09:18.714Z,11.82
2019-04-07T08:10:02.831Z,11.89
2019-04-07T08:11:02.906Z,11.89
2019-04-07T08:12:03.838Z,11.92
2019-04-07T08:13:08.851Z,11.94
2019-04-07T08:14:01.316Z,11.96
2019-04-07T08:15:00.542Z,11.98
2019-04-07T08:16:00.615Z,12.04
2019-04-07T08:17:04.190Z,12.04
2019-04-07T08:18:09.440Z,12.05
2019-04-07T08:19:01.593Z,12.1
2019-04-07T08:20:01.252Z,12.13
2019-04-07T08:21:00.514Z,12.21
2019-04-07T08:22:00.787Z,12.21
2019-04-07T08:23:00.794Z,12.24
2019-04-07T08:24:01.511Z,12.27
2019-04-07T08:25:01.182Z,12.25
2019-04-07T08:26:00.589Z,12.24
2019-04-07T08:27:00.505Z,12.27
2019-04-07T08:28:04.866Z,12.34
2019-04-07T08:29:08.617Z,12.41
2019-04-07T08:30:03.796Z,12.41
2019-04-07T08:31:00.925Z,12.42
2019-04-07T08:32:00.769Z,12.46
2019-04-07T08:33:03.550Z,12.48
2019-04-07T08:34:02.525Z,12.56
2019-04-07T08:35:05.846Z,12.55
2019-04-07T08:36:00.674Z,12.59
2019-04-07T08:37:01.425Z,12.6
2019-04-07T08:38:01.268Z,12.66
2019-04-07T08:39:00.757Z,12.73
2019-04-07T08:40:07.818Z,12.74
2019-04-07T08:41:04.324Z,12.76
2019-04-07T08:42:01.418Z,12.79
2019-04-07T08:43:01.263Z,12.82
2019-04-07T08:44:00.537Z,12.86
2019-04-07T08:45:03.232Z,12.88
2019-04-07T08:46:06.077Z,12.94
2019-04-07T08:47:01.496Z,12.97
2019-04-07T08:48:00.911Z,13.04
2019-04-07T08:49:00.521Z,13.06
2019-04-07T08:50:00.475Z,13.11
2019-04-07T08:51:01.193Z,13.17
2019-04-07T08:52:11.437Z,13.13
2019-04-07T08:53:00.454Z,13.13
2019-04-07T08:54:00.503Z,13.15
2019-04-07T08:55:00.490Z,13.18
2019-04-07T08:56:00.558Z,13.21
2019-04-07T08:57:00.702Z,13.24
2019-04-07T08:58:06.411Z,13.22
2019-04-07T08:59:00.444Z,13.25
2019-04-07T09:00:00.566Z,13.28
2019-04-07T09:01:00.464Z,13.32
2019-04-07T09:02:00.511Z,13.32
2019-04-07T09:03:14.678Z,13.35
2019-04-07T09:04:01.343Z,13.39
2019-04-07T09:05:02.479Z,13.47
2019-04-07T09:06:01.156Z,13.52
2019-04-07T09:07:05.107Z,13.55
2019-04-07T09:08:07.290Z,13.59
2019-04-07T09:09:00.586Z,13.62
2019-04-07T09:10:01.182Z,13.66
2019-04-07T09:11:00.552Z,13.67
2019-04-07T09:12:01.586Z,13.72
2019-04-07T09:13:09.046Z,13.74
2019-04-07T09:14:00.463Z,13.8
2019-04-07T09:15:05.428Z,13.83
2019-04-07T09:16:00.427Z,13.86
2019-04-07T09:17:00.482Z,13.86
2019-04-07T09:18:01.034Z,13.86
2019-04-07T09:19:08.424Z,13.89
2019-04-07T09:20:05.449Z,13.94
2019-04-07T09:21:00.945Z,13.97
2019-04-07T09:22:00.748Z,13.98
2019-04-07T09:23:00.669Z,14.02
2019-04-07T09:24:00.434Z,14.02
2019-04-07T09:25:09.637Z,14
2019-04-07T09:26:00.417Z,13.91
2019-04-07T09:27:01.220Z,13.77
2019-04-07T09:28:01.112Z,13.8
2019-04-07T09:29:00.896Z,13.84
2019-04-07T09:30:02.594Z,13.93
2019-04-07T09:31:04.704Z,13.86
2019-04-07T09:32:00.444Z,13.84
2019-04-07T09:33:01.422Z,13.87
2019-04-07T09:34:00.475Z,13.87
2019-04-07T09:35:00.774Z,13.86
2019-04-07T09:36:00.772Z,13.86
2019-04-07T09:37:00.542Z,13.9
2019-04-07T09:38:00.535Z,14
2019-04-07T09:39:04.175Z,14.1
2019-04-07T09:40:05.724Z,14.24
2019-04-07T09:41:00.675Z,14.27
2019-04-07T09:42:01.036Z,14.27
2019-04-07T09:43:01.431Z,14.35
2019-04-07T09:44:03.963Z,14.4
2019-04-07T09:45:00.556Z,14.32
2019-04-07T09:46:00.421Z,14.25
2019-04-07T09:47:00.926Z,14.25
2019-04-07T09:48:00.710Z,14.32
2019-04-07T09:49:02.110Z,14.39
2019-04-07T09:50:02.024Z,14.45
2019-04-07T09:51:08.537Z,14.48
2019-04-07T09:52:01.163Z,14.52
2019-04-07T09:53:01.301Z,14.58
2019-04-07T09:54:00.438Z,14.55
2019-04-07T09:55:01.335Z,14.51
2019-04-07T09:56:02.829Z,14.35
2019-04-07T09:57:07.348Z,14.22
2019-04-07T09:58:01.424Z,14.11
2019-04-07T09:59:00.406Z,14.1
2019-04-07T10:00:00.585Z,14.17
2019-04-07T10:01:00.397Z,14.21
2019-04-07T10:02:05.984Z,14.31
2019-04-07T10:03:11.920Z,14.39
2019-04-07T10:04:00.398Z,14.46
2019-04-07T10:05:00.399Z,14.53
2019-04-07T10:06:00.886Z,14.63
2019-04-07T10:07:03.745Z,14.69
2019-04-07T10:08:00.470Z,14.79
2019-04-07T10:09:01.141Z,14.83
2019-04-07T10:10:14.818Z,14.81
2019-04-07T10:11:00.787Z,14.8
2019-04-07T10:12:00.483Z,14.79
2019-04-07T10:13:00.758Z,14.83
2019-04-07T10:14:01.289Z,14.76
2019-04-07T10:15:00.384Z,14.64
2019-04-07T10:16:01.086Z,14.62
2019-04-07T10:17:01.238Z,14.52
2019-04-07T10:18:00.600Z,14.51
2019-04-07T10:19:00.807Z,14.53
2019-04-07T10:20:01.052Z,14.62
2019-04-07T10:21:01.656Z,14.69
2019-04-07T10:22:03.606Z,14.77
2019-04-07T10:23:00.818Z,14.83
2019-04-07T10:24:00.867Z,14.84
2019-04-07T10:25:00.457Z,14.76
2019-04-07T10:26:01.312Z,14.81
2019-04-07T10:27:01.439Z,14.9
2019-04-07T10:28:00.688Z,14.97
2019-04-07T10:29:00.688Z,15.02
2019-04-07T10:30:00.623Z,15.07
2019-04-07T10:31:00.321Z,15.09
2019-04-07T10:32:01.232Z,15.09
2019-04-07T10:33:02.041Z,15.11
2019-04-07T10:34:00.374Z,15.17
2019-04-07T10:35:01.193Z,15.26
2019-04-07T10:36:00.355Z,15.34
2019-04-07T10:37:05.114Z,15.41
2019-04-07T10:38:02.048Z,15.43
2019-04-07T10:39:00.907Z,15.43
2019-04-07T10:40:03.231Z,15.49
2019-04-07T10:41:01.109Z,15.46
2019-04-07T10:42:00.361Z,15.49
2019-04-07T10:43:01.469Z,15.52
2019-04-07T10:44:01.755Z,15.56
2019-04-07T10:45:00.672Z,15.64
2019-04-07T10:46:00.421Z,15.67
2019-04-07T10:47:00.502Z,15.67
2019-04-07T10:48:01.423Z,15.71
2019-04-07T10:49:00.399Z,15.66
2019-04-07T10:50:08.853Z,15.64
2019-04-07T10:51:00.347Z,15.62
2019-04-07T10:52:01.169Z,15.59
2019-04-07T10:53:00.421Z,15.62
2019-04-07T10:54:00.343Z,15.6
2019-04-07T10:55:01.244Z,15.64
2019-04-07T10:56:01.210Z,15.66
2019-04-07T10:57:01.100Z,15.67
2019-04-07T10:58:00.370Z,15.67
2019-04-07T10:59:00.347Z,15.7
2019-04-07T11:00:01.451Z,15.78
2019-04-07T11:01:01.022Z,15.84
2019-04-07T11:02:01.294Z,15.84
2019-04-07T11:03:00.952Z,15.84
2019-04-07T11:04:00.334Z,15.87
2019-04-07T11:05:00.724Z,15.85
2019-04-07T11:06:00.495Z,15.85
2019-04-07T11:07:00.316Z,15.9
2019-04-07T11:08:00.535Z,15.88
2019-04-07T11:09:00.327Z,15.88
2019-04-07T11:10:01.318Z,15.92
2019-04-07T11:11:00.302Z,15.95
2019-04-07T11:12:00.280Z,15.99
2019-04-07T11:13:00.796Z,15.99
2019-04-07T11:14:01.037Z,16.01
2019-04-07T11:15:01.073Z,16.02
2019-04-07T11:16:00.487Z,15.88
2019-04-07T11:17:02.518Z,15.8
2019-04-07T11:18:01.798Z,15.85
2019-04-07T11:19:00.315Z,15.91
2019-04-07T11:20:00.310Z,15.94
2019-04-07T11:21:02.307Z,16.02
2019-04-07T11:22:01.236Z,16.11
2019-04-07T11:23:01.991Z,16.18
2019-04-07T11:24:01.333Z,16.29
2019-04-07T11:25:01.204Z,16.36
2019-04-07T11:26:00.689Z,16.42
2019-04-07T11:27:00.316Z,16.47
2019-04-07T11:28:00.272Z,16.57
2019-04-07T11:29:00.279Z,16.63
2019-04-07T11:30:00.446Z,16.66
2019-04-07T11:31:00.570Z,16.73
2019-04-07T11:32:00.478Z,16.8
2019-04-07T11:33:01.905Z,16.84
2019-04-07T11:34:00.936Z,16.87
2019-04-07T11:35:00.290Z,16.87
2019-04-07T11:36:04.131Z,16.8
2019-04-07T11:37:00.685Z,16.84
2019-04-07T11:38:00.448Z,16.9
2019-04-07T11:39:00.639Z,16.94
2019-04-07T11:40:01.013Z,16.8
2019-04-07T11:41:00.375Z,16.81
2019-04-07T11:42:01.163Z,16.73
2019-04-07T11:43:00.620Z,16.63
2019-04-07T11:44:00.838Z,16.68
2019-04-07T11:45:00.307Z,16.78
2019-04-07T11:46:03.549Z,16.91
2019-04-07T11:47:00.618Z,16.97
2019-04-07T11:48:00.266Z,17.05
2019-04-07T11:49:00.945Z,17.09
2019-04-07T11:50:00.405Z,17.16
2019-04-07T11:51:00.237Z,17.19
2019-04-07T11:52:00.311Z,17.21
2019-04-07T11:53:00.688Z,17.25
2019-04-07T11:54:01.728Z,17.09
2019-04-07T11:55:01.032Z,17.01
2019-04-07T11:56:10.088Z,16.94
2019-04-07T11:57:00.983Z,16.99
2019-04-07T11:58:22.398Z,17.15
2019-04-07T11:59:01.252Z,17.23
2019-04-07T12:00:01.262Z,17.29
2019-04-07T12:01:00.291Z,17.35
2019-04-07T12:02:01.989Z,17.43
2019-04-07T12:03:00.923Z,17.43
2019-04-07T12:04:02.582Z,17.29
2019-04-07T12:05:00.347Z,17.23
2019-04-07T12:06:01.434Z,17.25
2019-04-07T12:07:00.313Z,17.18
2019-04-07T12:08:01.811Z,17.19
2019-04-07T12:09:00.388Z,17.11
2019-04-07T12:10:00.288Z,17.07
2019-04-07T12:11:06.557Z,17.09
2019-04-07T12:12:00.299Z,17.11
2019-04-07T12:13:00.457Z,17.07
2019-04-07T12:14:01.142Z,16.99
2019-04-07T12:15:00.295Z,16.99
2019-04-07T12:16:01.977Z,17.02
2019-04-07T12:17:09.310Z,17.01
2019-04-07T12:18:00.380Z,17.08
2019-04-07T12:19:00.491Z,16.97
2019-04-07T12:20:00.469Z,17.12
2019-04-07T12:21:07.552Z,17.27
2019-04-07T12:22:01.258Z,17.39
2019-04-07T12:23:00.488Z,17.61
2019-04-07T12:24:00.558Z,17.71
2019-04-07T12:25:05.677Z,17.81
2019-04-07T12:26:07.237Z,17.87
2019-04-07T12:27:02.077Z,17.95
2019-04-07T12:28:00.253Z,17.98
2019-04-07T12:29:00.770Z,18.02
2019-04-07T12:30:01.295Z,18.08
2019-04-07T12:31:00.220Z,18.2
2019-04-07T12:32:00.819Z,18.23
2019-04-07T12:33:00.295Z,18.3
2019-04-07T12:34:00.287Z,18.35
2019-04-07T12:35:01.202Z,18.36
2019-04-07T12:36:00.264Z,18.36
2019-04-07T12:37:07.880Z,18.37
2019-04-07T12:38:00.479Z,18.39
2019-04-07T12:39:00.235Z,18.49
2019-04-07T12:40:01.423Z,18.54
2019-04-07T12:41:22.067Z,18.57
2019-04-07T12:42:08.144Z,18.59
2019-04-07T12:43:00.322Z,18.6
2019-04-07T12:44:01.559Z,18.64
2019-04-07T12:45:00.280Z,18.67
2019-04-07T12:46:01.081Z,18.7
2019-04-07T12:47:00.252Z,18.66
2019-04-07T12:48:01.560Z,18.64
2019-04-07T12:49:00.322Z,18.53
2019-04-07T12:50:00.253Z,18.57
2019-04-07T12:51:00.958Z,18.52
2019-04-07T12:52:00.333Z,18.6
2019-04-07T12:53:05.305Z,18.63
2019-04-07T12:54:00.382Z,18.52
2019-04-07T12:55:00.569Z,18.27
2019-04-07T12:56:02.743Z,18.35
2019-04-07T12:57:07.340Z,18.47
2019-04-07T12:58:01.034Z,18.56
2019-04-07T12:59:01.496Z,18.42
2019-04-07T13:00:00.245Z,18.02
2019-04-07T13:01:19.016Z,18.11
2019-04-07T13:02:08.315Z,18.12
2019-04-07T13:03:00.228Z,18.19
2019-04-07T13:04:00.320Z,18.33
2019-04-07T13:05:07.606Z,18.37